Norient Star — 9HRV9 — position and weather

sailwx.info

Track history (hours):
 
Tides and Currents Weather Stations Pressure Air Temp Water Temp Dewpoint Dewpoint Depression Visibility Wind Speed Wind Dir Waves Ship Positions

Norient Star

Last reported at 2014-Oct-01 20:06 UTC. Time now 2014-Oct-02 16:37 UTC.
Position N 36°08' W 013°17'.

Length 180 m; draft 9.6 m.

Type: Ship. MMSI: 249434000.

Date/timePositionNaut miles runAvg speedWind from/ knotsBaromVisibWave heightAir tempDewpointWater temp
2014-Oct-01 20:06N 36°08' W 013°17'713.2
2014-Oct-01 19:32N 36°15' W 013°15'  
2014-Sep-28 14:24N 50°03' W 002°36'1713.6
2014-Sep-28 13:07N 50°08' W 002°10'712.1
2014-Sep-28 12:33N 50°10' W 001°60'1110.8
2014-Sep-28 11:30N 50°13' W 001°43'9 9.6
2014-Sep-28 10:33N 50°15' W 001°29'9 9.3
2014-Sep-28 09:33N 50°18' W 001°15'10 9.7
2014-Sep-28 08:33N 50°20' W 001°00'1211.8
2014-Sep-28 07:33N 50°23' W 000°43'1413.4
2014-Sep-28 06:32N 50°27' W 000°22'1714.0
2014-Sep-28 05:18N 50°32' E 000°04'1114.2
2014-Sep-28 04:33N 50°35' E 000°20'1313.5
2014-Sep-28 03:33N 50°40' E 000°39'1312.5
2014-Sep-28 02:33N 50°48' E 000°56'1111.2
2014-Sep-28 01:33N 50°55' E 001°10'1010.5
2014-Sep-28 00:33N 51°01' E 001°22'1212.2
2014-Sep-27 23:33N 51°09' E 001°37'1414.1
2014-Sep-27 22:33N 51°20' E 001°52'1514.7
2014-Sep-27 21:33N 51°32' E 002°05'1414.3
2014-Sep-27 20:33N 51°43' E 002°20'1313.3
2014-Sep-27 19:33N 51°53' E 002°34'1212.3
2014-Sep-27 18:33N 52°03' E 002°46'1211.6
2014-Sep-27 17:33N 52°11' E 002°59'1111.1
2014-Sep-27 16:33N 52°20' E 003°11'1110.8
2014-Sep-27 15:29N 52°26' E 003°26'1211.5
2014-Sep-27 14:25N 52°31' E 003°45'1212.5
2014-Sep-27 13:28N 52°31' E 004°04'2010.3
2014-Sep-27 11:32N 52°28' E 004°37'5 4.8
2014-Sep-27 10:33N 52°26' E 004°44'5 4.4
2014-Sep-27 09:31N 52°25' E 004°51'0 0.0
2014-Sep-27 08:31N 52°25' E 004°51'0 0.0
2014-Sep-27 07:29N 52°25' E 004°51'0 0.0
2014-Sep-27 06:32N 52°25' E 004°51'0 0.0
2014-Sep-27 05:32N 52°25' E 004°51'0 0.0
2014-Sep-27 04:32N 52°25' E 004°51'0 0.0
2014-Sep-27 03:32N 52°25' E 004°51'0 0.0
2014-Sep-27 02:32N 52°25' E 004°51'0 0.0
2014-Sep-27 01:32N 52°25' E 004°51'0 0.0
2014-Sep-27 00:31N 52°25' E 004°51'0 0.0
2014-Sep-26 23:31N 52°25' E 004°51'0 0.0
2014-Sep-26 22:29N 52°25' E 004°51'0 0.0
2014-Sep-26 21:32N 52°25' E 004°51'0 0.0
2014-Sep-26 20:29N 52°25' E 004°51'0 0.0
2014-Sep-26 19:32N 52°25' E 004°51'0 0.0
2014-Sep-26 18:32N 52°25' E 004°51'0 0.0
2014-Sep-26 17:32N 52°25' E 004°51'0 0.0
2014-Sep-26 16:32N 52°25' E 004°51'0 0.0
2014-Sep-26 15:32N 52°25' E 004°51'0 0.0
2014-Sep-26 14:32N 52°25' E 004°51'0 0.0
2014-Sep-26 13:32N 52°25' E 004°51'0 0.0
2014-Sep-26 12:32N 52°25' E 004°51'0 0.0
2014-Sep-26 11:26N 52°25' E 004°51'0 0.0
2014-Sep-26 10:29N 52°25' E 004°51'0 0.0
2014-Sep-26 09:32N 52°25' E 004°51'0 0.0
2014-Sep-26 08:29N 52°25' E 004°51'0 0.0
2014-Sep-26 07:31N 52°25' E 004°51'0 0.0
2014-Sep-26 06:29N 52°25' E 004°51'0 0.0
2014-Sep-26 05:31N 52°25' E 004°51'0 0.0
2014-Sep-26 04:31N 52°25' E 004°51'0 0.0
2014-Sep-26 03:23N 52°25' E 004°51'0 0.0
2014-Sep-26 02:31N 52°25' E 004°51'0 0.0
2014-Sep-26 01:31N 52°25' E 004°51'0 0.0
2014-Sep-26 00:29N 52°25' E 004°51'0 0.0
2014-Sep-25 23:31N 52°25' E 004°51'0 0.0
2014-Sep-25 22:29N 52°25' E 004°51'0 0.0
2014-Sep-25 21:31N 52°25' E 004°51'0 0.0
2014-Sep-25 20:31N 52°25' E 004°51'0 0.0
2014-Sep-25 19:32N 52°25' E 004°51'0 0.0
2014-Sep-25 18:32N 52°25' E 004°51'0 0.0
2014-Sep-25 17:32N 52°25' E 004°51'0 0.0
2014-Sep-25 16:32N 52°25' E 004°51'0 0.0
2014-Sep-25 15:32N 52°25' E 004°51'0 0.0
2014-Sep-25 14:32N 52°25' E 004°51'0 0.0
2014-Sep-25 13:32N 52°25' E 004°51'0 0.0
2014-Sep-25 12:32N 52°25' E 004°51'0 0.0
2014-Sep-25 11:28N 52°25' E 004°51'0 0.0
2014-Sep-25 10:32N 52°25' E 004°51'0 0.0
2014-Sep-25 09:32N 52°25' E 004°51'0 0.0
2014-Sep-25 08:32N 52°25' E 004°51'0 0.0
2014-Sep-25 07:33N 52°25' E 004°51'0 0.0
2014-Sep-25 06:33N 52°25' E 004°51'0 0.0
2014-Sep-25 05:33N 52°25' E 004°51'0 0.0
2014-Sep-25 04:33N 52°25' E 004°51'0 0.0
2014-Sep-25 03:33N 52°25' E 004°51'0 0.0
2014-Sep-25 02:33N 52°25' E 004°51'0 0.0
2014-Sep-25 01:33N 52°25' E 004°51'0 0.0
2014-Sep-25 00:33N 52°25' E 004°51'0 0.0
2014-Sep-24 23:33N 52°25' E 004°51'0 0.0
2014-Sep-24 22:33N 52°25' E 004°51'0 0.0
2014-Sep-24 21:33N 52°25' E 004°51'0 0.0
2014-Sep-24 20:33N 52°25' E 004°51'0 0.0
2014-Sep-24 19:31N 52°25' E 004°51'0 0.0
2014-Sep-24 18:31N 52°25' E 004°51'0 0.0
2014-Sep-24 17:28N 52°25' E 004°51'0 0.0
2014-Sep-24 16:32N 52°25' E 004°51'0 0.0
2014-Sep-24 15:33N 52°25' E 004°51'0 0.0
2014-Sep-24 14:33N 52°25' E 004°51'0 0.0
2014-Sep-24 13:33N 52°25' E 004°51'0 0.0
2014-Sep-24 12:33N 52°25' E 004°51'0 0.0
2014-Sep-24 11:33N 52°25' E 004°51'0 0.0
2014-Sep-24 10:33N 52°25' E 004°51'0 0.0
2014-Sep-24 09:33N 52°25' E 004°51'0 0.0
2014-Sep-24 08:33N 52°25' E 004°51'0 0.0
2014-Sep-24 07:31N 52°25' E 004°51'0 0.0
2014-Sep-24 06:31N 52°25' E 004°51'0 0.0
2014-Sep-24 05:31N 52°25' E 004°51'0 0.0
2014-Sep-24 04:28N 52°25' E 004°51'0 0.0
2014-Sep-24 03:31N 52°25' E 004°51'0 0.0
2014-Sep-24 02:31N 52°25' E 004°51'0 0.0
2014-Sep-24 01:31N 52°25' E 004°51'0 0.0
2014-Sep-24 00:31N 52°25' E 004°51'0 0.0
2014-Sep-23 23:31N 52°25' E 004°51'0 0.0
2014-Sep-23 22:31N 52°25' E 004°51'0 0.0
2014-Sep-23 21:31N 52°25' E 004°51'0 0.0
2014-Sep-23 20:31N 52°25' E 004°51'0 0.0
2014-Sep-23 19:32N 52°25' E 004°51'0 0.0
2014-Sep-23 18:32N 52°25' E 004°51'0 0.0
2014-Sep-23 17:32N 52°25' E 004°51'2 2.3
2014-Sep-23 16:33N 52°25' E 004°47'7 7.1
2014-Sep-23 15:33N 52°28' E 004°37'2 1.5
2014-Sep-23 14:33N 52°28' E 004°34'7 6.6
2014-Sep-23 13:34N 52°29' E 004°23'8 8.5
2014-Sep-23 12:34N 52°29' E 004°09'6 5.6
2014-Sep-23 11:32N 52°27' E 004°01'0 0.0
2014-Sep-23 10:32N 52°27' E 004°01'0 0.0
2014-Sep-23 09:32N 52°27' E 004°01'0 0.0
2014-Sep-23 08:32N 52°27' E 004°01'0 0.0
2014-Sep-23 07:32N 52°27' E 004°01'0 0.0
2014-Sep-23 06:32N 52°27' E 004°01'0 0.0
2014-Sep-23 05:32N 52°27' E 004°01'0 0.1
2014-Sep-23 04:32N 52°27' E 004°01'0 0.1
2014-Sep-23 03:32N 52°27' E 004°01'0 0.0
2014-Sep-23 02:32N 52°27' E 004°01'3 3.5
2014-Sep-23 01:33N 52°27' E 003°55'1211.7
2014-Sep-23 00:32N 52°23' E 003°37'5810.8
2014-Sep-22 19:09N 51°41' E 002°31'6 9.9
2014-Sep-22 18:33N 51°37' E 002°24'1010.2
2014-Sep-22 17:32N 51°29' E 002°13'1110.8
2014-Sep-22 16:34N 51°23' E 001°59'1212.2
2014-Sep-22 15:33N 51°28' E 001°42'7 6.8
2014-Sep-22 14:32N 51°31' E 001°32'0 0.0
2014-Sep-22 13:32N 51°31' E 001°32'0 0.0
2014-Sep-22 12:32N 51°31' E 001°32'0 0.2
2014-Sep-22 11:32N 51°31' E 001°31'0 0.0
2014-Sep-22 10:32N 51°31' E 001°31'0 0.0
2014-Sep-22 09:32N 51°31' E 001°31'0 0.0
2014-Sep-22 08:32N 51°31' E 001°31'0 0.0
2014-Sep-22 07:32N 51°31' E 001°31'0 0.0
2014-Sep-22 06:32N 51°31' E 001°31'0 0.0
2014-Sep-22 05:32N 51°31' E 001°31'0 0.0
2014-Sep-22 04:32N 51°31' E 001°31'0 0.0
2014-Sep-22 03:32N 51°31' E 001°32'0 0.0
2014-Sep-22 02:32N 51°31' E 001°32'0 0.0
2014-Sep-22 01:32N 51°31' E 001°32'0 0.0
2014-Sep-22 00:32N 51°31' E 001°32'0 0.1
2014-Sep-21 23:32N 51°31' E 001°31'0 0.1
2014-Sep-21 22:30N 51°31' E 001°31'0 0.0
2014-Sep-21 21:32N 51°31' E 001°31'0 0.0
2014-Sep-21 20:32N 51°31' E 001°31'  
Track history (hours):
 
Tides and Currents Weather Stations Pressure Air Temp Water Temp Dewpoint Dewpoint Depression Visibility Wind Speed Wind Dir Waves Ship Positions

Norient Star

Last reported at 2014-Oct-01 20:06 UTC. Time now 2014-Oct-02 16:37 UTC.
Position N 36°08' W 013°17'.

Length 180 m; draft 9.6 m.

Type: Ship. MMSI: 249434000.

Date/timePositionNaut miles runAvg speedWind from/ knotsBaromVisibWave heightAir tempDewpointWater temp
2014-Oct-01 20:06N 36°08' W 013°17'713.2
2014-Oct-01 19:32N 36°15' W 013°15'  
2014-Sep-28 14:24N 50°03' W 002°36'1713.6
2014-Sep-28 13:07N 50°08' W 002°10'712.1
2014-Sep-28 12:33N 50°10' W 001°60'1110.8
2014-Sep-28 11:30N 50°13' W 001°43'9 9.6
2014-Sep-28 10:33N 50°15' W 001°29'9 9.3
2014-Sep-28 09:33N 50°18' W 001°15'10 9.7
2014-Sep-28 08:33N 50°20' W 001°00'1211.8
2014-Sep-28 07:33N 50°23' W 000°43'1413.4
2014-Sep-28 06:32N 50°27' W 000°22'1714.0
2014-Sep-28 05:18N 50°32' E 000°04'1114.2
2014-Sep-28 04:33N 50°35' E 000°20'1313.5
2014-Sep-28 03:33N 50°40' E 000°39'1312.5
2014-Sep-28 02:33N 50°48' E 000°56'1111.2
2014-Sep-28 01:33N 50°55' E 001°10'1010.5
2014-Sep-28 00:33N 51°01' E 001°22'1212.2
2014-Sep-27 23:33N 51°09' E 001°37'1414.1
2014-Sep-27 22:33N 51°20' E 001°52'1514.7
2014-Sep-27 21:33N 51°32' E 002°05'1414.3
2014-Sep-27 20:33N 51°43' E 002°20'1313.3
2014-Sep-27 19:33N 51°53' E 002°34'1212.3
2014-Sep-27 18:33N 52°03' E 002°46'1211.6
2014-Sep-27 17:33N 52°11' E 002°59'1111.1
2014-Sep-27 16:33N 52°20' E 003°11'1110.8
2014-Sep-27 15:29N 52°26' E 003°26'1211.5
2014-Sep-27 14:25N 52°31' E 003°45'1212.5
2014-Sep-27 13:28N 52°31' E 004°04'2010.3
2014-Sep-27 11:32N 52°28' E 004°37'5 4.8
2014-Sep-27 10:33N 52°26' E 004°44'5 4.4
2014-Sep-27 09:31N 52°25' E 004°51'0 0.0
2014-Sep-27 08:31N 52°25' E 004°51'0 0.0
2014-Sep-27 07:29N 52°25' E 004°51'0 0.0
2014-Sep-27 06:32N 52°25' E 004°51'0 0.0
2014-Sep-27 05:32N 52°25' E 004°51'0 0.0
2014-Sep-27 04:32N 52°25' E 004°51'0 0.0
2014-Sep-27 03:32N 52°25' E 004°51'0 0.0
2014-Sep-27 02:32N 52°25' E 004°51'0 0.0
2014-Sep-27 01:32N 52°25' E 004°51'0 0.0
2014-Sep-27 00:31N 52°25' E 004°51'0 0.0
2014-Sep-26 23:31N 52°25' E 004°51'0 0.0
2014-Sep-26 22:29N 52°25' E 004°51'0 0.0
2014-Sep-26 21:32N 52°25' E 004°51'0 0.0
2014-Sep-26 20:29N 52°25' E 004°51'0 0.0
2014-Sep-26 19:32N 52°25' E 004°51'0 0.0
2014-Sep-26 18:32N 52°25' E 004°51'0 0.0
2014-Sep-26 17:32N 52°25' E 004°51'0 0.0
2014-Sep-26 16:32N 52°25' E 004°51'0 0.0
2014-Sep-26 15:32N 52°25' E 004°51'0 0.0
2014-Sep-26 14:32N 52°25' E 004°51'0 0.0
2014-Sep-26 13:32N 52°25' E 004°51'0 0.0
2014-Sep-26 12:32N 52°25' E 004°51'0 0.0
2014-Sep-26 11:26N 52°25' E 004°51'0 0.0
2014-Sep-26 10:29N 52°25' E 004°51'0 0.0
2014-Sep-26 09:32N 52°25' E 004°51'0 0.0
2014-Sep-26 08:29N 52°25' E 004°51'0 0.0
2014-Sep-26 07:31N 52°25' E 004°51'0 0.0
2014-Sep-26 06:29N 52°25' E 004°51'0 0.0
2014-Sep-26 05:31N 52°25' E 004°51'0 0.0
2014-Sep-26 04:31N 52°25' E 004°51'0 0.0
2014-Sep-26 03:23N 52°25' E 004°51'0 0.0
2014-Sep-26 02:31N 52°25' E 004°51'0 0.0
2014-Sep-26 01:31N 52°25' E 004°51'0 0.0
2014-Sep-26 00:29N 52°25' E 004°51'0 0.0
2014-Sep-25 23:31N 52°25' E 004°51'0 0.0
2014-Sep-25 22:29N 52°25' E 004°51'0 0.0
2014-Sep-25 21:31N 52°25' E 004°51'0 0.0
2014-Sep-25 20:31N 52°25' E 004°51'0 0.0
2014-Sep-25 19:32N 52°25' E 004°51'0 0.0
2014-Sep-25 18:32N 52°25' E 004°51'0 0.0
2014-Sep-25 17:32N 52°25' E 004°51'0 0.0
2014-Sep-25 16:32N 52°25' E 004°51'0 0.0
2014-Sep-25 15:32N 52°25' E 004°51'0 0.0
2014-Sep-25 14:32N 52°25' E 004°51'0 0.0
2014-Sep-25 13:32N 52°25' E 004°51'0 0.0
2014-Sep-25 12:32N 52°25' E 004°51'0 0.0
2014-Sep-25 11:28N 52°25' E 004°51'0 0.0
2014-Sep-25 10:32N 52°25' E 004°51'0 0.0
2014-Sep-25 09:32N 52°25' E 004°51'0 0.0
2014-Sep-25 08:32N 52°25' E 004°51'0 0.0
2014-Sep-25 07:33N 52°25' E 004°51'0 0.0
2014-Sep-25 06:33N 52°25' E 004°51'0 0.0
2014-Sep-25 05:33N 52°25' E 004°51'0 0.0
2014-Sep-25 04:33N 52°25' E 004°51'0 0.0
2014-Sep-25 03:33N 52°25' E 004°51'0 0.0
2014-Sep-25 02:33N 52°25' E 004°51'0 0.0
2014-Sep-25 01:33N 52°25' E 004°51'0 0.0
2014-Sep-25 00:33N 52°25' E 004°51'0 0.0
2014-Sep-24 23:33N 52°25' E 004°51'0 0.0
2014-Sep-24 22:33N 52°25' E 004°51'0 0.0
2014-Sep-24 21:33N 52°25' E 004°51'0 0.0
2014-Sep-24 20:33N 52°25' E 004°51'0 0.0
2014-Sep-24 19:31N 52°25' E 004°51'0 0.0
2014-Sep-24 18:31N 52°25' E 004°51'0 0.0
2014-Sep-24 17:28N 52°25' E 004°51'0 0.0
2014-Sep-24 16:32N 52°25' E 004°51'0 0.0
2014-Sep-24 15:33N 52°25' E 004°51'0 0.0
2014-Sep-24 14:33N 52°25' E 004°51'0 0.0
2014-Sep-24 13:33N 52°25' E 004°51'0 0.0
2014-Sep-24 12:33N 52°25' E 004°51'0 0.0
2014-Sep-24 11:33N 52°25' E 004°51'0 0.0
2014-Sep-24 10:33N 52°25' E 004°51'0 0.0
2014-Sep-24 09:33N 52°25' E 004°51'0 0.0
2014-Sep-24 08:33N 52°25' E 004°51'0 0.0
2014-Sep-24 07:31N 52°25' E 004°51'0 0.0
2014-Sep-24 06:31N 52°25' E 004°51'0 0.0
2014-Sep-24 05:31N 52°25' E 004°51'0 0.0
2014-Sep-24 04:28N 52°25' E 004°51'0 0.0
2014-Sep-24 03:31N 52°25' E 004°51'0 0.0
2014-Sep-24 02:31N 52°25' E 004°51'0 0.0
2014-Sep-24 01:31N 52°25' E 004°51'0 0.0
2014-Sep-24 00:31N 52°25' E 004°51'0 0.0
2014-Sep-23 23:31N 52°25' E 004°51'0 0.0
2014-Sep-23 22:31N 52°25' E 004°51'0 0.0
2014-Sep-23 21:31N 52°25' E 004°51'0 0.0
2014-Sep-23 20:31N 52°25' E 004°51'0 0.0
2014-Sep-23 19:32N 52°25' E 004°51'0 0.0
2014-Sep-23 18:32N 52°25' E 004°51'0 0.0
2014-Sep-23 17:32N 52°25' E 004°51'2 2.3
2014-Sep-23 16:33N 52°25' E 004°47'7 7.1
2014-Sep-23 15:33N 52°28' E 004°37'2 1.5
2014-Sep-23 14:33N 52°28' E 004°34'7 6.6
2014-Sep-23 13:34N 52°29' E 004°23'8 8.5
2014-Sep-23 12:34N 52°29' E 004°09'6 5.6
2014-Sep-23 11:32N 52°27' E 004°01'0 0.0
2014-Sep-23 10:32N 52°27' E 004°01'0 0.0
2014-Sep-23 09:32N 52°27' E 004°01'0 0.0
2014-Sep-23 08:32N 52°27' E 004°01'0 0.0
2014-Sep-23 07:32N 52°27' E 004°01'0 0.0
2014-Sep-23 06:32N 52°27' E 004°01'0 0.0
2014-Sep-23 05:32N 52°27' E 004°01'0 0.1
2014-Sep-23 04:32N 52°27' E 004°01'0 0.1
2014-Sep-23 03:32N 52°27' E 004°01'0 0.0
2014-Sep-23 02:32N 52°27' E 004°01'3 3.5
2014-Sep-23 01:33N 52°27' E 003°55'1211.7
2014-Sep-23 00:32N 52°23' E 003°37'5810.8
2014-Sep-22 19:09N 51°41' E 002°31'6 9.9
2014-Sep-22 18:33N 51°37' E 002°24'1010.2
2014-Sep-22 17:32N 51°29' E 002°13'1110.8
2014-Sep-22 16:34N 51°23' E 001°59'1212.2
2014-Sep-22 15:33N 51°28' E 001°42'7 6.8
2014-Sep-22 14:32N 51°31' E 001°32'0 0.0
2014-Sep-22 13:32N 51°31' E 001°32'0 0.0
2014-Sep-22 12:32N 51°31' E 001°32'0 0.2
2014-Sep-22 11:32N 51°31' E 001°31'0 0.0
2014-Sep-22 10:32N 51°31' E 001°31'0 0.0
2014-Sep-22 09:32N 51°31' E 001°31'0 0.0
2014-Sep-22 08:32N 51°31' E 001°31'0 0.0
2014-Sep-22 07:32N 51°31' E 001°31'0 0.0
2014-Sep-22 06:32N 51°31' E 001°31'0 0.0
2014-Sep-22 05:32N 51°31' E 001°31'0 0.0
2014-Sep-22 04:32N 51°31' E 001°31'0 0.0
2014-Sep-22 03:32N 51°31' E 001°32'0 0.0
2014-Sep-22 02:32N 51°31' E 001°32'0 0.0
2014-Sep-22 01:32N 51°31' E 001°32'0 0.0
2014-Sep-22 00:32N 51°31' E 001°32'0 0.1
2014-Sep-21 23:32N 51°31' E 001°31'0 0.1
2014-Sep-21 22:30N 51°31' E 001°31'0 0.0
2014-Sep-21 21:32N 51°31' E 001°31'0 0.0
2014-Sep-21 20:32N 51°31' E 001°31'  

Dump ship's entire track history